Time;durP1;ratioP1;P1;durP2;ratioP2;P2;SDS_P1;SDS_P2;PMS_P1;PMS_P2;Temp;Humidity;BMP_temperature;BMP_pressure;BME280_temperature;BME280_humidity;BME280_pressure;Samples;Min_cycle;Max_cycle;Signal;HPM_P1;HPM_P2
2020/12/24 00:00:23;;;;;;;5.10;4.50;;;;;;;;;;5093350;28;20446;-61
2020/12/24 00:02:51;;;;;;;4.30;3.90;;;;;;;;;;5093526;28;20515;-61
2020/12/24 00:05:17;;;;;;;4.50;4.10;;;;;;;;;;5093215;28;21010;-60
2020/12/24 00:07:44;;;;;;;5.13;4.23;;;;;;;;;;5093058;28;20478;-61
2020/12/24 00:10:11;;;;;;;3.90;3.60;;;;;;;;;;5093468;28;20439;-61
2020/12/24 00:12:38;;;;;;;8.07;3.90;;;;;;;;;;5094030;28;20469;-62
2020/12/24 00:15:05;;;;;;;7.23;4.13;;;;;;;;;;5093675;28;20450;-60
2020/12/24 00:17:32;;;;;;;4.60;3.80;;;;;;;;;;5093625;28;20792;-59
2020/12/24 00:19:59;;;;;;;3.97;3.67;;;;;;;;;;5093915;28;20479;-60
2020/12/24 00:22:26;;;;;;;4.10;3.70;;;;;;;;;;5094128;28;20474;-60
2020/12/24 00:24:53;;;;;;;4.63;3.83;;;;;;;;;;5097545;28;20442;-60
2020/12/24 00:27:19;;;;;;;5.10;4.50;;;;;;;;;;5097851;28;20772;-61
2020/12/24 00:29:46;;;;;;;4.13;3.80;;;;;;;;;;5097515;28;20442;-60
2020/12/24 00:32:13;;;;;;;7.37;4.17;;;;;;;;;;5097660;28;20466;-61
2020/12/24 00:34:40;;;;;;;4.23;3.83;;;;;;;;;;5098601;28;20469;-61
2020/12/24 00:37:08;;;;;;;5.73;3.33;;;;;;;;;;5100902;28;20807;-61
2020/12/24 00:39:34;;;;;;;4.13;2.97;;;;;;;;;;5097330;28;20823;-60
2020/12/24 00:42:01;;;;;;;4.43;2.90;;;;;;;;;;5097470;28;20477;-60
2020/12/24 00:44:28;;;;;;;4.23;3.07;;;;;;;;;;5097055;28;20442;-61
2020/12/24 00:46:54;;;;;;;3.57;2.70;;;;;;;;;;5097255;28;20484;-61
2020/12/24 00:49:21;;;;;;;5.40;3.13;;;;;;;;;;5097201;28;20547;-61
2020/12/24 00:51:48;;;;;;;2.60;2.40;;;;;;;;;;5096794;28;20442;-61
2020/12/24 00:54:16;;;;;;;4.03;3.10;;;;;;;;;;5097088;28;20803;-61
2020/12/24 00:56:42;;;;;;;3.10;2.43;;;;;;;;;;5097021;28;20450;-61
2020/12/24 00:59:09;;;;;;;2.73;2.40;;;;;;;;;;5096670;28;20992;-61
2020/12/24 01:01:36;;;;;;;3.07;2.80;;;;;;;;;;5097052;28;20442;-61
2020/12/24 01:04:03;;;;;;;3.23;2.50;;;;;;;;;;5096873;28;20499;-61
2020/12/24 01:06:29;;;;;;;3.27;2.80;;;;;;;;;;5096684;28;20458;-60
2020/12/24 01:08:56;;;;;;;3.30;2.70;;;;;;;;;;5096367;28;20997;-61
2020/12/24 01:11:27;;;;;;;4.20;3.57;;;;;;;;;;5097524;28;20449;-60
2020/12/24 01:13:54;;;;;;;2.87;2.67;;;;;;;;;;5096434;28;20989;-60
2020/12/24 01:16:21;;;;;;;3.87;3.40;;;;;;;;;;5096854;28;20816;-61
2020/12/24 01:18:47;;;;;;;4.27;2.83;;;;;;;;;;5097001;28;20434;-60
2020/12/24 01:21:14;;;;;;;3.97;3.10;;;;;;;;;;5097038;28;20461;-61
2020/12/24 01:23:41;;;;;;;7.17;4.20;;;;;;;;;;5096997;28;20992;-60
2020/12/24 01:26:08;;;;;;;3.17;2.87;;;;;;;;;;5097106;28;20442;-61
2020/12/24 01:28:36;;;;;;;3.57;3.27;;;;;;;;;;5097043;28;21010;-61
2020/12/24 01:31:03;;;;;;;6.20;3.37;;;;;;;;;;5099193;28;20960;-60
2020/12/24 01:33:30;;;;;;;5.93;3.23;;;;;;;;;;5100069;28;20461;-60
2020/12/24 01:35:58;;;;;;;4.40;3.50;;;;;;;;;;5098677;28;20465;-60
2020/12/24 01:38:25;;;;;;;4.67;3.43;;;;;;;;;;5098803;28;20460;-61
2020/12/24 01:40:56;;;;;;;5.63;3.30;;;;;;;;;;5097636;28;20456;-60
2020/12/24 01:43:23;;;;;;;4.13;3.40;;;;;;;;;;5098164;28;20886;-61
2020/12/24 01:45:53;;;;;;;5.87;3.50;;;;;;;;;;5097343;28;20446;-61
2020/12/24 01:48:20;;;;;;;5.40;3.30;;;;;;;;;;5096524;28;20619;-59
2020/12/24 01:50:47;;;;;;;5.23;3.30;;;;;;;;;;5096613;28;20442;-60
2020/12/24 01:53:19;;;;;;;3.73;2.83;;;;;;;;;;5096136;28;20978;-60
2020/12/24 01:55:46;;;;;;;1.70;1.60;;;;;;;;;;5096186;28;20428;-61
2020/12/24 01:58:13;;;;;;;2.33;1.60;;;;;;;;;;5096233;28;20447;-60
2020/12/24 02:00:40;;;;;;;1.73;1.23;;;;;;;;;;5096150;28;20944;-60
2020/12/24 02:03:07;;;;;;;2.40;1.53;;;;;;;;;;5096115;28;20463;-61
2020/12/24 02:05:34;;;;;;;1.13;1.03;;;;;;;;;;5095954;28;20451;-60
2020/12/24 02:08:01;;;;;;;2.80;1.43;;;;;;;;;;5095529;28;20482;-59
2020/12/24 02:10:27;;;;;;;1.67;1.40;;;;;;;;;;5095479;28;20930;-61
2020/12/24 02:12:54;;;;;;;3.47;1.43;;;;;;;;;;5095446;28;20310;-60
2020/12/24 02:15:21;;;;;;;2.80;1.40;;;;;;;;;;5095639;28;20439;-61
2020/12/24 02:17:48;;;;;;;4.80;1.30;;;;;;;;;;5095470;28;20754;-61
2020/12/24 02:20:15;;;;;;;1.52;1.30;;;;;;;;;;5095048;28;20507;-61
2020/12/24 02:22:43;;;;;;;3.13;1.20;;;;;;;;;;5095240;28;20273;-61
2020/12/24 02:25:09;;;;;;;1.20;1.00;;;;;;;;;;5096077;28;20447;-61
2020/12/24 02:27:36;;;;;;;1.60;1.50;;;;;;;;;;5095183;28;20492;-60
2020/12/24 02:30:04;;;;;;;2.25;1.40;;;;;;;;;;5095463;28;20200;-61
2020/12/24 02:32:31;;;;;;;1.67;1.37;;;;;;;;;;5095683;28;20584;-61
2020/12/24 02:34:57;;;;;;;2.50;1.60;;;;;;;;;;5095190;28;20442;-60
2020/12/24 02:37:24;;;;;;;1.60;1.50;;;;;;;;;;5095417;28;20824;-61
2020/12/24 02:39:52;;;;;;;3.00;1.65;;;;;;;;;;5095456;28;20446;-60
2020/12/24 02:42:19;;;;;;;1.73;1.60;;;;;;;;;;5094980;28;20281;-62
2020/12/24 02:44:46;;;;;;;2.43;1.60;;;;;;;;;;5095084;28;20442;-61
2020/12/24 02:47:13;;;;;;;3.03;1.87;;;;;;;;;;5093680;28;20446;-61
2020/12/24 02:49:39;;;;;;;2.95;1.70;;;;;;;;;;5094650;28;20438;-60
2020/12/24 02:52:06;;;;;;;4.43;1.90;;;;;;;;;;5094990;28;20224;-61
2020/12/24 02:54:33;;;;;;;6.15;2.00;;;;;;;;;;5094548;28;20446;-61
2020/12/24 02:57:01;;;;;;;4.22;2.15;;;;;;;;;;5094579;28;20200;-59
2020/12/24 02:59:28;;;;;;;4.80;2.20;;;;;;;;;;5094863;28;20197;-61
2020/12/24 03:02:01;;;;;;;5.68;1.90;;;;;;;;;;5094926;28;20495;-60
2020/12/24 03:04:27;;;;;;;2.55;1.98;;;;;;;;;;5094747;28;20207;-60
2020/12/24 03:06:54;;;;;;;2.63;2.20;;;;;;;;;;5094394;28;20216;-60
2020/12/24 03:09:21;;;;;;;5.35;2.40;;;;;;;;;;5094419;28;20223;-60
2020/12/24 03:11:50;;;;;;;7.30;2.03;;;;;;;;;;5094353;28;20258;-61
2020/12/24 03:14:18;;;;;;;6.20;2.28;;;;;;;;;;5094878;28;20204;-60
2020/12/24 03:16:45;;;;;;;4.13;2.72;;;;;;;;;;5094743;28;20200;-60
2020/12/24 03:19:12;;;;;;;4.97;2.60;;;;;;;;;;5094314;28;20200;-62
2020/12/24 03:21:39;;;;;;;3.90;2.28;;;;;;;;;;5094252;28;20207;-61
2020/12/24 03:24:06;;;;;;;3.60;2.33;;;;;;;;;;5094308;28;20204;-61
2020/12/24 03:26:33;;;;;;;13.60;3.25;;;;;;;;;;5094325;28;20196;-61
2020/12/24 03:29:00;;;;;;;8.52;3.85;;;;;;;;;;5094001;28;20223;-61
2020/12/24 03:31:28;;;;;;;6.22;3.65;;;;;;;;;;5094408;28;20204;-61
2020/12/24 03:33:55;;;;;;;7.00;3.80;;;;;;;;;;5094283;28;20625;-61
2020/12/24 03:36:22;;;;;;;6.63;3.40;;;;;;;;;;5101508;28;20593;-60
2020/12/24 03:38:49;;;;;;;4.60;3.25;;;;;;;;;;5098444;28;20196;-60
2020/12/24 03:41:16;;;;;;;6.15;3.78;;;;;;;;;;5094189;28;20200;-60
2020/12/24 03:43:43;;;;;;;6.60;3.80;;;;;;;;;;5094028;28;20585;-61
2020/12/24 03:46:10;;;;;;;5.30;3.80;;;;;;;;;;5094077;28;20200;-61
2020/12/24 03:48:37;;;;;;;6.40;3.83;;;;;;;;;;5093582;28;20216;-61
2020/12/24 03:51:04;;;;;;;8.23;3.55;;;;;;;;;;5093654;28;20204;-61
2020/12/24 03:53:31;;;;;;;4.60;3.10;;;;;;;;;;5093818;28;20217;-60
2020/12/24 03:55:58;;;;;;;4.10;1.65;;;;;;;;;;5093488;28;20579;-61
2020/12/24 03:58:24;;;;;;;6.35;1.42;;;;;;;;;;5093104;28;20204;-61
2020/12/24 04:00:51;;;;;;;2.35;1.35;;;;;;;;;;5093520;28;20200;-61
2020/12/24 04:03:18;;;;;;;1.70;1.23;;;;;;;;;;5093793;28;20231;-61
2020/12/24 04:07:29;;;;;;;4.57;1.52;;;;;;;;;;5113822;27;20540;-61
2020/12/24 04:09:56;;;;;;;1.30;1.20;;;;;;;;;;5113069;28;20207;-61
2020/12/24 04:12:23;;;;;;;2.33;1.30;;;;;;;;;;5112437;28;20703;-61
2020/12/24 04:14:49;;;;;;;4.85;1.75;;;;;;;;;;5112872;28;20249;-60
2020/12/24 04:17:16;;;;;;;1.70;1.40;;;;;;;;;;5112787;28;20200;-60
2020/12/24 04:19:43;;;;;;;1.92;1.50;;;;;;;;;;5112847;28;20196;-59
2020/12/24 04:22:10;;;;;;;4.30;1.90;;;;;;;;;;5113471;28;20276;-60
2020/12/24 04:24:37;;;;;;;4.10;1.80;;;;;;;;;;5111796;28;20249;-60
2020/12/24 04:27:04;;;;;;;5.60;1.70;;;;;;;;;;5115294;28;20610;-60
2020/12/24 04:29:31;;;;;;;5.50;1.90;;;;;;;;;;5112888;28;20203;-60
2020/12/24 04:31:57;;;;;;;2.28;2.05;;;;;;;;;;5110878;28;20220;-60
2020/12/24 04:34:24;;;;;;;3.85;2.38;;;;;;;;;;5111178;28;20196;-61
2020/12/24 04:36:51;;;;;;;5.70;2.30;;;;;;;;;;5111604;28;20203;-60
2020/12/24 04:39:19;;;;;;;3.67;2.70;;;;;;;;;;5111229;28;20200;-60
2020/12/24 04:41:46;;;;;;;6.60;3.70;;;;;;;;;;5110722;28;20690;-60
2020/12/24 04:44:13;;;;;;;6.03;3.00;;;;;;;;;;5111352;28;20200;-60
2020/12/24 04:46:43;;;;;;;4.63;2.75;;;;;;;;;;5110914;28;20216;-60
2020/12/24 04:49:10;;;;;;;5.45;3.50;;;;;;;;;;5110748;28;20676;-60
2020/12/24 04:51:37;;;;;;;7.80;3.20;;;;;;;;;;5110803;28;20204;-60
2020/12/24 04:54:04;;;;;;;9.60;3.92;;;;;;;;;;5111068;28;20223;-60
2020/12/24 04:56:31;;;;;;;6.10;3.70;;;;;;;;;;5111221;28;20249;-59
2020/12/24 04:59:00;;;;;;;8.80;3.90;;;;;;;;;;5111557;28;20200;-61
2020/12/24 05:01:26;;;;;;;5.13;3.95;;;;;;;;;;5111887;28;20196;-59
2020/12/24 05:03:55;;;;;;;5.78;4.10;;;;;;;;;;5111575;28;20224;-60
2020/12/24 05:06:22;;;;;;;9.95;4.05;;;;;;;;;;5111036;28;20228;-60
2020/12/24 05:08:53;;;;;;;4.57;3.40;;;;;;;;;;5111080;28;20210;-59
2020/12/24 05:11:25;;;;;;;11.40;5.03;;;;;;;;;;5110760;28;20265;-60
2020/12/24 05:13:52;;;;;;;8.57;4.88;;;;;;;;;;5110618;28;20310;-59
2020/12/24 05:16:19;;;;;;;8.73;4.60;;;;;;;;;;5110654;28;20204;-60
2020/12/24 05:18:46;;;;;;;10.80;5.25;;;;;;;;;;5096991;28;20204;-61
2020/12/24 05:21:30;;;;;;;12.30;4.60;;;;;;;;;;5096838;28;20200;-60
2020/12/24 05:23:56;;;;;;;10.82;5.05;;;;;;;;;;5096939;28;20224;-60
2020/12/24 05:26:23;;;;;;;7.53;4.75;;;;;;;;;;5096636;28;20219;-60
2020/12/24 05:28:50;;;;;;;9.18;4.65;;;;;;;;;;5096527;28;20687;-60
2020/12/24 05:31:34;;;;;;;6.70;4.10;;;;;;;;;;5096357;28;20676;-58
2020/12/24 05:34:00;;;;;;;9.20;4.80;;;;;;;;;;5096143;28;20221;-59
2020/12/24 05:36:27;;;;;;;9.23;4.68;;;;;;;;;;5096097;28;20200;-60
2020/12/24 05:38:54;;;;;;;6.07;4.40;;;;;;;;;;5095985;28;20204;-60
2020/12/24 05:41:28;;;;;;;13.10;6.50;;;;;;;;;;5096254;28;20207;-60
2020/12/24 05:43:56;;;;;;;10.43;4.32;;;;;;;;;;5096162;28;20269;-59
2020/12/24 05:46:23;;;;;;;7.93;4.70;;;;;;;;;;5095915;28;20770;-59
2020/12/24 05:48:50;;;;;;;7.22;4.10;;;;;;;;;;5096342;28;20204;-59
2020/12/24 05:51:18;;;;;;;6.22;3.80;;;;;;;;;;5096347;28;20196;-60
2020/12/24 05:53:46;;;;;;;3.92;2.40;;;;;;;;;;5095967;28;20665;-59
2020/12/24 05:56:19;;;;;;;6.28;2.83;;;;;;;;;;5096216;28;20200;-60
2020/12/24 05:58:47;;;;;;;5.47;2.67;;;;;;;;;;5096070;28;20550;-59
2020/12/24 06:01:14;;;;;;;4.80;2.15;;;;;;;;;;5096462;28;20200;-60
2020/12/24 06:03:48;;;;;;;4.32;2.15;;;;;;;;;;5097337;28;20220;-60
2020/12/24 06:06:19;;;;;;;4.32;2.13;;;;;;;;;;5097061;28;20580;-60
2020/12/24 06:08:47;;;;;;;4.68;2.47;;;;;;;;;;5096443;28;20181;-60
2020/12/24 06:11:14;;;;;;;3.42;2.67;;;;;;;;;;5096435;28;20204;-59
2020/12/24 06:13:41;;;;;;;2.90;2.70;;;;;;;;;;5095919;28;20716;-59
2020/12/24 06:16:09;;;;;;;2.78;2.58;;;;;;;;;;5095709;28;20207;-60
2020/12/24 06:18:36;;;;;;;4.40;3.03;;;;;;;;;;5095892;28;20204;-60
2020/12/24 06:21:03;;;;;;;3.08;2.75;;;;;;;;;;5095730;28;20672;-61
2020/12/24 06:23:38;;;;;;;2.28;2.08;;;;;;;;;;5095450;28;20216;-59
2020/12/24 06:26:05;;;;;;;2.55;2.20;;;;;;;;;;5095082;28;20204;-60
2020/12/24 06:28:34;;;;;;;2.83;2.55;;;;;;;;;;5094921;28;20204;-61
2020/12/24 06:31:02;;;;;;;3.80;2.42;;;;;;;;;;5094660;28;20204;-59
2020/12/24 06:33:29;;;;;;;2.40;2.20;;;;;;;;;;5095186;28;20224;-60
2020/12/24 06:35:56;;;;;;;2.88;2.08;;;;;;;;;;5095064;28;20668;-59
2020/12/24 06:38:38;;;;;;;1.50;1.40;;;;;;;;;;5095204;28;20204;-60
2020/12/24 06:41:21;;;;;;;1.90;1.65;;;;;;;;;;5092946;28;20204;-59
2020/12/24 06:43:48;;;;;;;1.90;1.80;;;;;;;;;;5095106;28;20280;-60
2020/12/24 06:46:15;;;;;;;2.13;1.90;;;;;;;;;;5095251;28;20303;-60
2020/12/24 06:48:41;;;;;;;2.20;2.00;;;;;;;;;;5095277;28;20581;-59
2020/12/24 06:51:12;;;;;;;2.28;2.08;;;;;;;;;;5099418;28;20570;-59
2020/12/24 06:53:39;;;;;;;3.50;2.33;;;;;;;;;;5103209;28;20263;-60
2020/12/24 06:56:26;;;;;;;1.38;1.27;;;;;;;;;;5095422;28;20235;-59
2020/12/24 06:58:55;;;;;;;1.58;1.30;;;;;;;;;;5095432;28;20191;-59
2020/12/24 07:01:23;;;;;;;1.40;1.30;;;;;;;;;;5095199;28;20699;-60
2020/12/24 07:03:50;;;;;;;1.88;1.02;;;;;;;;;;5096928;28;20243;-59
2020/12/24 07:06:32;;;;;;;1.00;0.90;;;;;;;;;;5096594;28;20220;-59
2020/12/24 07:08:58;;;;;;;1.27;1.17;;;;;;;;;;5095381;28;20200;-60
2020/12/24 07:11:42;;;;;;;0.80;0.80;;;;;;;;;;5095745;28;20696;-59
2020/12/24 07:14:23;;;;;;;0.85;0.80;;;;;;;;;;5095658;28;20207;-60
2020/12/24 07:16:51;;;;;;;0.50;0.50;;;;;;;;;;5096502;28;20265;-59
2020/12/24 07:19:18;;;;;;;0.80;0.70;;;;;;;;;;5095907;28;20207;-60
2020/12/24 07:21:47;;;;;;;0.60;0.60;;;;;;;;;;5095702;28;20211;-59
2020/12/24 07:24:14;;;;;;;0.70;0.65;;;;;;;;;;5094938;28;20766;-59
2020/12/24 07:26:43;;;;;;;0.70;0.70;;;;;;;;;;5094528;28;20224;-60
2020/12/24 07:29:10;;;;;;;0.75;0.70;;;;;;;;;;5094767;28;20227;-59
2020/12/24 07:31:38;;;;;;;0.70;0.70;;;;;;;;;;5094973;28;20196;-60
2020/12/24 07:34:05;;;;;;;1.40;1.00;;;;;;;;;;5094715;28;20295;-59
2020/12/24 07:36:31;;;;;;;0.75;0.73;;;;;;;;;;5094064;28;20568;-60
2020/12/24 07:38:58;;;;;;;1.00;0.90;;;;;;;;;;5094344;28;20588;-60
2020/12/24 07:41:25;;;;;;;1.10;1.00;;;;;;;;;;5093989;28;20611;-60
2020/12/24 07:43:52;;;;;;;0.75;0.68;;;;;;;;;;5094387;28;20228;-59
2020/12/24 07:46:22;;;;;;;1.00;0.90;;;;;;;;;;5093893;28;20227;-60
2020/12/24 07:48:49;;;;;;;1.67;0.95;;;;;;;;;;5094299;28;20196;-60
2020/12/24 07:51:16;;;;;;;1.20;1.10;;;;;;;;;;5094680;28;20278;-60
2020/12/24 07:53:43;;;;;;;1.00;1.00;;;;;;;;;;5094389;28;20303;-59
2020/12/24 07:56:10;;;;;;;2.28;1.40;;;;;;;;;;5093911;28;20220;-60
2020/12/24 07:58:37;;;;;;;1.80;1.70;;;;;;;;;;5093979;28;20200;-59
2020/12/24 08:01:05;;;;;;;1.70;1.60;;;;;;;;;;5093735;28;20294;-59
2020/12/24 08:03:32;;;;;;;1.60;1.50;;;;;;;;;;5093795;28;20270;-59
2020/12/24 08:06:03;;;;;;;2.10;1.90;;;;;;;;;;5093749;28;20217;-60
2020/12/24 08:08:31;;;;;;;2.15;1.95;;;;;;;;;;5095529;28;20204;-58
2020/12/24 08:10:58;;;;;;;2.25;2.10;;;;;;;;;;5095453;28;20200;-59
2020/12/24 08:13:25;;;;;;;2.65;2.45;;;;;;;;;;5095162;28;20220;-59
2020/12/24 08:15:53;;;;;;;2.75;2.55;;;;;;;;;;5095830;28;20204;-60
2020/12/24 08:18:28;;;;;;;3.15;2.13;;;;;;;;;;5095469;28;20664;-59
2020/12/24 08:20:57;;;;;;;3.00;2.40;;;;;;;;;;5096528;28;20211;-60
2020/12/24 08:23:28;;;;;;;2.83;2.53;;;;;;;;;;5095548;28;20242;-59
2020/12/24 08:25:56;;;;;;;2.53;2.30;;;;;;;;;;5095745;28;20211;-59
2020/12/24 08:28:24;;;;;;;3.15;2.80;;;;;;;;;;5096071;28;20247;-60
2020/12/24 08:30:51;;;;;;;2.67;1.85;;;;;;;;;;5095295;28;20253;-59
2020/12/24 08:33:18;;;;;;;2.90;2.65;;;;;;;;;;5094958;28;20223;-60
2020/12/24 08:35:46;;;;;;;4.47;2.22;;;;;;;;;;5094673;28;20269;-60
2020/12/24 08:38:13;;;;;;;1.60;1.50;;;;;;;;;;5103190;28;20197;-59
2020/12/24 08:40:40;;;;;;;2.05;1.63;;;;;;;;;;5096206;28;20200;-59
2020/12/24 08:43:08;;;;;;;1.70;1.60;;;;;;;;;;5094466;28;20246;-60
2020/12/24 08:45:42;;;;;;;1.40;1.30;;;;;;;;;;5107586;28;20219;-60
2020/12/24 08:48:09;;;;;;;1.30;1.20;;;;;;;;;;5105644;28;20211;-59
2020/12/24 08:50:38;;;;;;;1.50;1.35;;;;;;;;;;5110212;28;20204;-58
2020/12/24 08:53:06;;;;;;;1.75;1.65;;;;;;;;;;5112273;28;20248;-59
2020/12/24 08:55:33;;;;;;;2.08;1.50;;;;;;;;;;5113828;28;20303;-58
2020/12/24 08:58:00;;;;;;;1.65;1.40;;;;;;;;;;5111425;28;20213;-58
2020/12/24 09:00:27;;;;;;;1.38;1.27;;;;;;;;;;5112391;28;20222;-59
2020/12/24 09:02:54;;;;;;;3.55;1.95;;;;;;;;;;5114979;28;20243;-59
2020/12/24 09:05:25;;;;;;;1.30;1.20;;;;;;;;;;5103810;28;20269;-59
2020/12/24 09:07:52;;;;;;;1.63;1.42;;;;;;;;;;5103385;28;20208;-59
2020/12/24 09:10:26;;;;;;;1.73;1.55;;;;;;;;;;5100181;28;20208;-60
2020/12/24 09:12:56;;;;;;;2.00;1.80;;;;;;;;;;5098998;28;20276;-60
2020/12/24 09:15:26;;;;;;;1.25;1.15;;;;;;;;;;5099618;28;20668;-60
2020/12/24 09:17:53;;;;;;;1.45;1.35;;;;;;;;;;5097438;28;20227;-59
2020/12/24 09:20:24;;;;;;;1.60;1.50;;;;;;;;;;5097054;28;20196;-60
2020/12/24 09:22:51;;;;;;;1.75;1.65;;;;;;;;;;5096915;28;20588;-59
2020/12/24 09:25:29;;;;;;;1.65;1.25;;;;;;;;;;5097253;28;20211;-59
2020/12/24 09:27:56;;;;;;;1.65;1.55;;;;;;;;;;5096693;28;20235;-60
2020/12/24 09:30:22;;;;;;;2.70;1.70;;;;;;;;;;5096502;28;20702;-59
2020/12/24 09:32:55;;;;;;;1.52;1.33;;;;;;;;;;5096453;28;20230;-59
2020/12/24 09:35:23;;;;;;;2.05;1.77;;;;;;;;;;5098985;28;20636;-59
2020/12/24 09:37:50;;;;;;;1.60;1.30;;;;;;;;;;5101222;28;20215;-60
2020/12/24 09:40:16;;;;;;;2.72;2.53;;;;;;;;;;5097976;28;20257;-60
2020/12/24 09:42:44;;;;;;;1.75;1.20;;;;;;;;;;5097667;28;20661;-59
2020/12/24 09:45:11;;;;;;;1.80;1.70;;;;;;;;;;5097810;28;20575;-59
2020/12/24 09:47:38;;;;;;;1.55;1.40;;;;;;;;;;5097436;28;20208;-60
2020/12/24 09:50:05;;;;;;;2.17;1.75;;;;;;;;;;5097681;28;20204;-60
2020/12/24 09:52:32;;;;;;;3.15;1.50;;;;;;;;;;5097785;28;20588;-60
2020/12/24 09:54:58;;;;;;;2.17;1.98;;;;;;;;;;5098223;28;20196;-59
2020/12/24 09:57:25;;;;;;;2.15;1.70;;;;;;;;;;5101068;28;20246;-60
2020/12/24 09:59:53;;;;;;;1.90;1.70;;;;;;;;;;5101123;28;20211;-59
2020/12/24 10:02:20;;;;;;;2.30;2.10;;;;;;;;;;5100086;28;20220;-59
2020/12/24 10:04:46;;;;;;;4.07;2.40;;;;;;;;;;5099037;28;20200;-59
2020/12/24 10:07:13;;;;;;;2.65;2.33;;;;;;;;;;5101477;28;20644;-59
2020/12/24 10:09:40;;;;;;;3.70;2.35;;;;;;;;;;5101816;28;20733;-59
2020/12/24 10:12:07;;;;;;;3.50;2.10;;;;;;;;;;5098747;28;20220;-59
2020/12/24 10:14:33;;;;;;;4.55;2.40;;;;;;;;;;5099564;28;20254;-59
2020/12/24 10:17:05;;;;;;;3.85;2.38;;;;;;;;;;5098742;28;20217;-60
2020/12/24 10:19:32;;;;;;;3.65;3.10;;;;;;;;;;5098983;28;20275;-60
2020/12/24 10:21:59;;;;;;;4.05;3.00;;;;;;;;;;5099183;28;20216;-59
2020/12/24 10:24:26;;;;;;;3.20;2.70;;;;;;;;;;5098745;28;20200;-60
2020/12/24 10:26:55;;;;;;;3.28;2.97;;;;;;;;;;5099580;28;20235;-60
2020/12/24 10:29:22;;;;;;;5.35;3.10;;;;;;;;;;5099450;28;20317;-59
2020/12/24 10:31:49;;;;;;;3.40;3.00;;;;;;;;;;5099544;28;20200;-60
2020/12/24 10:34:16;;;;;;;3.60;2.55;;;;;;;;;;5098570;28;20200;-60
2020/12/24 10:36:43;;;;;;;3.83;2.75;;;;;;;;;;5096070;28;20192;-59
2020/12/24 10:39:10;;;;;;;4.55;3.20;;;;;;;;;;5095459;28;20207;-59
2020/12/24 10:41:37;;;;;;;3.83;2.70;;;;;;;;;;5096081;28;20196;-60
2020/12/24 10:44:04;;;;;;;3.25;2.95;;;;;;;;;;5097826;28;20204;-60
2020/12/24 10:46:31;;;;;;;3.85;2.95;;;;;;;;;;5096998;28;20425;-60
2020/12/24 10:48:58;;;;;;;3.42;2.47;;;;;;;;;;5096174;28;20200;-59
2020/12/24 10:51:26;;;;;;;3.83;3.42;;;;;;;;;;5095976;28;20570;-59
2020/12/24 10:53:52;;;;;;;3.22;2.92;;;;;;;;;;5095759;28;20236;-59
2020/12/24 10:56:19;;;;;;;5.60;3.10;;;;;;;;;;5095548;28;20230;-60
2020/12/24 10:58:46;;;;;;;5.72;3.63;;;;;;;;;;5095419;28;20207;-60
2020/12/24 11:01:13;;;;;;;5.80;3.78;;;;;;;;;;5094446;28;20205;-59
2020/12/24 11:03:41;;;;;;;3.80;3.50;;;;;;;;;;5094399;28;20306;-59
2020/12/24 11:06:08;;;;;;;3.90;3.25;;;;;;;;;;5094362;28;20215;-60
2020/12/24 11:08:35;;;;;;;3.80;3.40;;;;;;;;;;5094214;28;20215;-61
2020/12/24 11:11:02;;;;;;;3.70;3.40;;;;;;;;;;5094329;28;20216;-59
2020/12/24 11:13:29;;;;;;;4.60;3.10;;;;;;;;;;5096194;28;20223;-59
2020/12/24 11:15:56;;;;;;;3.97;3.30;;;;;;;;;;5109049;28;20207;-60
2020/12/24 11:18:22;;;;;;;2.75;2.50;;;;;;;;;;5095700;28;20273;-60
2020/12/24 11:20:49;;;;;;;4.15;3.22;;;;;;;;;;5094346;28;20676;-59
2020/12/24 11:23:16;;;;;;;3.50;3.17;;;;;;;;;;5094176;28;20216;-58
2020/12/24 11:25:44;;;;;;;4.85;2.58;;;;;;;;;;5094169;28;20643;-60
2020/12/24 11:28:10;;;;;;;3.67;3.05;;;;;;;;;;5094659;28;20197;-60
2020/12/24 11:30:37;;;;;;;3.45;3.15;;;;;;;;;;5095028;28;20314;-60
2020/12/24 11:33:04;;;;;;;3.50;3.08;;;;;;;;;;5095279;28;20216;-60
2020/12/24 11:35:31;;;;;;;5.63;2.50;;;;;;;;;;5094765;28;20273;-60
2020/12/24 11:37:57;;;;;;;6.20;3.10;;;;;;;;;;5095392;28;20199;-60
2020/12/24 11:40:24;;;;;;;3.58;2.88;;;;;;;;;;5097214;28;20681;-61
2020/12/24 11:42:52;;;;;;;3.35;2.65;;;;;;;;;;5094304;28;20565;-60
2020/12/24 11:45:19;;;;;;;3.72;2.90;;;;;;;;;;5094323;28;20201;-60
2020/12/24 11:47:45;;;;;;;4.22;3.50;;;;;;;;;;5093611;28;20227;-59
2020/12/24 11:50:12;;;;;;;5.28;3.40;;;;;;;;;;5094167;28;20204;-60
2020/12/24 11:52:39;;;;;;;7.35;3.33;;;;;;;;;;5093918;28;20246;-59
2020/12/24 11:55:06;;;;;;;3.63;2.92;;;;;;;;;;5093804;28;20216;-60
2020/12/24 11:57:33;;;;;;;4.93;2.97;;;;;;;;;;5093704;28;20269;-59
2020/12/24 12:00:00;;;;;;;4.15;2.75;;;;;;;;;;5093214;28;20573;-60
2020/12/24 12:02:27;;;;;;;3.30;3.00;;;;;;;;;;5094141;28;20291;-60
2020/12/24 12:04:54;;;;;;;4.47;3.00;;;;;;;;;;5094051;28;20204;-59
2020/12/24 12:07:21;;;;;;;4.57;2.72;;;;;;;;;;5094321;28;20761;-60
2020/12/24 12:09:48;;;;;;;5.95;3.08;;;;;;;;;;5094037;28;20204;-59
2020/12/24 12:12:15;;;;;;;5.50;3.90;;;;;;;;;;5094517;28;20364;-59
2020/12/24 12:14:41;;;;;;;4.10;3.70;;;;;;;;;;5094666;28;20525;-59
2020/12/24 12:17:12;;;;;;;4.43;3.83;;;;;;;;;;5094985;28;20200;-60
2020/12/24 12:19:39;;;;;;;4.65;4.25;;;;;;;;;;5095474;28;20184;-61
2020/12/24 12:22:05;;;;;;;7.30;4.90;;;;;;;;;;5095594;28;20316;-60
2020/12/24 12:24:32;;;;;;;5.90;5.35;;;;;;;;;;5097356;28;20574;-60
2020/12/24 12:26:59;;;;;;;7.00;5.03;;;;;;;;;;5096370;28;20220;-60
2020/12/24 12:29:26;;;;;;;6.90;6.20;;;;;;;;;;5101035;28;20196;-60
2020/12/24 12:31:52;;;;;;;7.95;5.30;;;;;;;;;;5099705;28;20253;-60
2020/12/24 12:34:20;;;;;;;8.35;7.00;;;;;;;;;;5099584;28;20205;-60
2020/12/24 12:36:47;;;;;;;8.90;6.57;;;;;;;;;;5100512;28;20196;-59
2020/12/24 12:39:14;;;;;;;8.40;7.57;;;;;;;;;;5099109;28;20698;-60
2020/12/24 12:41:41;;;;;;;9.70;7.75;;;;;;;;;;5099364;28;20204;-60
2020/12/24 12:44:07;;;;;;;10.30;7.30;;;;;;;;;;5098322;28;20200;-58
2020/12/24 12:46:34;;;;;;;10.80;8.05;;;;;;;;;;5098449;28;20215;-60
2020/12/24 12:49:01;;;;;;;9.55;8.35;;;;;;;;;;5098500;28;20575;-60
2020/12/24 12:51:28;;;;;;;9.18;7.70;;;;;;;;;;5097117;28;20564;-60
2020/12/24 12:53:55;;;;;;;11.30;8.48;;;;;;;;;;5096857;28;20228;-60
2020/12/24 12:56:22;;;;;;;10.15;8.38;;;;;;;;;;5096606;28;20663;-60
2020/12/24 12:58:50;;;;;;;11.95;9.55;;;;;;;;;;5097243;28;20201;-60
2020/12/24 13:01:17;;;;;;;10.70;9.13;;;;;;;;;;5096955;28;20731;-59
2020/12/24 13:03:44;;;;;;;11.23;10.10;;;;;;;;;;5096586;28;20231;-60
2020/12/24 13:06:15;;;;;;;11.57;10.38;;;;;;;;;;5096499;28;20295;-59
2020/12/24 13:08:46;;;;;;;12.77;10.00;;;;;;;;;;5096837;28;20569;-61
2020/12/24 13:11:13;;;;;;;10.25;9.13;;;;;;;;;;5096827;28;20215;-61
2020/12/24 13:13:40;;;;;;;11.07;9.82;;;;;;;;;;5096803;28;20224;-60
2020/12/24 13:16:06;;;;;;;11.98;10.35;;;;;;;;;;5097003;28;20203;-60
2020/12/24 13:18:34;;;;;;;11.85;9.88;;;;;;;;;;5096676;28;20216;-59
2020/12/24 13:21:01;;;;;;;11.70;9.43;;;;;;;;;;5096724;28;20624;-60
2020/12/24 13:23:28;;;;;;;11.27;9.45;;;;;;;;;;5097117;28;20227;-60
2020/12/24 13:25:55;;;;;;;10.02;8.88;;;;;;;;;;5096449;28;20672;-60
2020/12/24 13:28:23;;;;;;;12.77;10.50;;;;;;;;;;5096342;28;20249;-59
2020/12/24 13:30:50;;;;;;;10.80;9.10;;;;;;;;;;5096361;28;20269;-59
2020/12/24 13:33:17;;;;;;;11.82;9.57;;;;;;;;;;5096039;28;20224;-59
2020/12/24 13:35:44;;;;;;;13.07;8.35;;;;;;;;;;5096207;28;20197;-59
2020/12/24 13:38:11;;;;;;;10.18;8.63;;;;;;;;;;5096114;28;20203;-61
2020/12/24 13:40:38;;;;;;;11.80;9.55;;;;;;;;;;5096254;28;20253;-59
2020/12/24 13:43:05;;;;;;;10.45;9.45;;;;;;;;;;5096083;28;20227;-59
2020/12/24 13:45:32;;;;;;;9.55;7.70;;;;;;;;;;5096106;28;20204;-60
2020/12/24 13:47:59;;;;;;;11.10;8.00;;;;;;;;;;5096399;28;20227;-59
2020/12/24 13:50:25;;;;;;;10.00;8.20;;;;;;;;;;5097913;28;20691;-60
2020/12/24 13:52:52;;;;;;;10.32;8.15;;;;;;;;;;5099145;28;20224;-60
2020/12/24 13:55:19;;;;;;;10.48;8.57;;;;;;;;;;5096174;28;20257;-60
2020/12/24 13:57:46;;;;;;;11.55;8.80;;;;;;;;;;5095894;28;20214;-60
2020/12/24 14:00:13;;;;;;;8.70;7.15;;;;;;;;;;5096882;28;20205;-59
2020/12/24 14:02:40;;;;;;;8.30;7.47;;;;;;;;;;5097989;28;20227;-59
2020/12/24 14:05:07;;;;;;;9.70;8.70;;;;;;;;;;5106862;28;20204;-60
2020/12/24 14:07:33;;;;;;;10.68;7.60;;;;;;;;;;5101623;28;20209;-59
2020/12/24 14:10:00;;;;;;;8.95;7.95;;;;;;;;;;5098396;28;20565;-60
2020/12/24 14:12:27;;;;;;;8.50;7.13;;;;;;;;;;5097940;28;20231;-60
2020/12/24 14:14:53;;;;;;;11.02;9.00;;;;;;;;;;5096274;28;20207;-60
2020/12/24 14:17:21;;;;;;;8.18;7.22;;;;;;;;;;5095917;28;20227;-59
2020/12/24 14:19:48;;;;;;;12.48;7.75;;;;;;;;;;5095102;28;20254;-60
2020/12/24 14:22:15;;;;;;;12.25;8.43;;;;;;;;;;5095483;28;20224;-60
2020/12/24 14:24:41;;;;;;;10.10;7.90;;;;;;;;;;5095212;28;20250;-60
2020/12/24 14:27:08;;;;;;;13.15;8.10;;;;;;;;;;5095168;28;20216;-60
2020/12/24 14:29:35;;;;;;;8.27;7.38;;;;;;;;;;5094954;28;20200;-60
2020/12/24 14:32:01;;;;;;;8.88;6.70;;;;;;;;;;5094971;28;20224;-61
2020/12/24 14:34:29;;;;;;;11.13;7.30;;;;;;;;;;5094966;28;20219;-61
2020/12/24 14:36:56;;;;;;;9.98;6.95;;;;;;;;;;5095162;28;20201;-61
2020/12/24 14:39:25;;;;;;;8.45;6.93;;;;;;;;;;5094943;28;20699;-61
2020/12/24 14:41:51;;;;;;;7.32;6.15;;;;;;;;;;5094803;28;20223;-60
2020/12/24 14:44:18;;;;;;;10.35;6.65;;;;;;;;;;5095022;28;20227;-61